createdAt,value
2022-10-09T00:00:48.402Z,8.20
2022-10-09T00:03:17.131Z,8.20
2022-10-09T00:05:44.892Z,8.10
2022-10-09T00:08:11.542Z,8.10
2022-10-09T00:10:42.485Z,8.10
2022-10-09T00:13:09.467Z,8.10
2022-10-09T00:15:44.547Z,8.00
2022-10-09T00:18:17.485Z,8.00
2022-10-09T00:20:46.068Z,7.90
2022-10-09T00:23:18.190Z,7.90
2022-10-09T00:26:01.663Z,7.90
2022-10-09T00:28:34.284Z,7.90
2022-10-09T00:31:08.016Z,7.90
2022-10-09T00:33:35.856Z,7.80
2022-10-09T00:36:11.557Z,7.80
2022-10-09T00:38:38.527Z,7.70
2022-10-09T00:41:05.757Z,7.70
2022-10-09T00:43:45.191Z,7.60
2022-10-09T00:46:27.352Z,7.60
2022-10-09T00:49:24.401Z,7.60
2022-10-09T00:51:51.897Z,7.60
2022-10-09T00:54:22.887Z,7.50
2022-10-09T00:56:50.482Z,7.50
2022-10-09T00:59:18.793Z,7.50
2022-10-09T01:01:45.839Z,7.50
2022-10-09T01:04:12.648Z,7.50
2022-10-09T01:06:55.493Z,7.50
2022-10-09T01:09:46.412Z,7.50
2022-10-09T01:12:39.959Z,7.50
2022-10-09T01:15:18.531Z,7.40
2022-10-09T01:18:00.497Z,7.40
2022-10-09T01:20:30.772Z,7.30
2022-10-09T01:23:29.820Z,7.30
2022-10-09T01:26:20.283Z,7.30
2022-10-09T01:28:52.479Z,7.20
2022-10-09T01:31:20.881Z,7.30
2022-10-09T01:33:48.327Z,7.30
2022-10-09T01:36:16.706Z,7.30
2022-10-09T01:38:45.262Z,7.30
2022-10-09T01:41:11.911Z,7.30
2022-10-09T01:43:38.503Z,7.20
2022-10-09T01:46:29.010Z,7.10
2022-10-09T01:49:20.342Z,7.10
2022-10-09T01:52:08.729Z,7.10
2022-10-09T01:54:41.984Z,7.00
2022-10-09T01:57:10.182Z,7.00
2022-10-09T01:59:41.846Z,7.00
2022-10-09T02:02:08.982Z,7.00
2022-10-09T02:04:38.918Z,7.00
2022-10-09T02:07:06.153Z,6.90
2022-10-09T02:09:33.737Z,6.90
2022-10-09T02:12:06.827Z,7.10
2022-10-09T02:14:36.907Z,7.10
2022-10-09T02:17:17.094Z,7.20
2022-10-09T02:19:48.848Z,7.20
2022-10-09T02:22:19.200Z,7.30
2022-10-09T02:24:46.655Z,7.40
2022-10-09T02:27:14.353Z,7.50
2022-10-09T02:29:43.131Z,7.50
2022-10-09T02:32:10.547Z,7.60
2022-10-09T02:34:37.367Z,7.80
2022-10-09T02:37:04.787Z,7.90
2022-10-09T02:39:31.462Z,8.00
2022-10-09T02:41:58.095Z,8.10
2022-10-09T02:44:24.957Z,8.10
2022-10-09T02:46:51.763Z,8.10
2022-10-09T02:49:18.741Z,8.10
2022-10-09T02:51:45.388Z,8.10
2022-10-09T02:54:12.064Z,8.00
2022-10-09T02:56:39.241Z,8.00
2022-10-09T02:59:06.626Z,8.00
2022-10-09T03:01:33.291Z,7.90
2022-10-09T03:03:59.926Z,7.90
2022-10-09T03:06:28.377Z,7.80
2022-10-09T03:08:56.377Z,7.80
2022-10-09T03:11:25.032Z,7.70
2022-10-09T03:13:52.123Z,7.80
2022-10-09T03:16:22.990Z,7.70
2022-10-09T03:18:50.704Z,7.70
2022-10-09T03:21:20.699Z,7.60
2022-10-09T03:23:47.718Z,7.60
2022-10-09T03:26:17.774Z,7.50
2022-10-09T03:28:49.518Z,7.50
2022-10-09T03:31:33.420Z,7.40
2022-10-09T03:34:04.496Z,7.40
2022-10-09T03:36:31.158Z,7.50
2022-10-09T03:38:57.809Z,7.50
2022-10-09T03:41:24.431Z,7.70
2022-10-09T03:43:51.203Z,7.70
2022-10-09T03:46:18.059Z,7.80
2022-10-09T03:48:44.689Z,7.90
2022-10-09T03:51:11.346Z,8.00
2022-10-09T03:53:38.022Z,8.10
2022-10-09T03:56:04.753Z,8.10
2022-10-09T03:58:31.500Z,8.20
2022-10-09T04:00:58.177Z,8.20
2022-10-09T04:03:27.123Z,8.20
2022-10-09T04:05:53.716Z,8.20
2022-10-09T04:08:20.510Z,8.20
2022-10-09T04:10:47.089Z,8.20
2022-10-09T04:13:13.724Z,8.10
2022-10-09T04:15:40.329Z,8.10
2022-10-09T04:18:07.583Z,8.10
2022-10-09T04:20:34.332Z,8.10
2022-10-09T04:23:01.465Z,8.10
2022-10-09T04:25:28.278Z,8.20
2022-10-09T04:27:54.984Z,8.20
2022-10-09T04:30:21.589Z,8.20
2022-10-09T04:32:48.721Z,8.20
2022-10-09T04:35:16.740Z,8.30
2022-10-09T04:37:43.532Z,8.20
2022-10-09T04:40:10.401Z,8.20
2022-10-09T04:42:37.153Z,8.30
2022-10-09T04:45:04.728Z,8.30
2022-10-09T04:47:31.394Z,8.30
2022-10-09T04:49:58.086Z,8.30
2022-10-09T04:52:25.548Z,8.30
2022-10-09T04:54:52.180Z,8.30
2022-10-09T04:57:18.919Z,8.30
2022-10-09T04:59:45.707Z,8.30
2022-10-09T05:02:12.433Z,8.40
2022-10-09T05:04:39.487Z,8.40
2022-10-09T05:07:06.302Z,8.40
2022-10-09T05:09:32.925Z,8.40
2022-10-09T05:11:59.890Z,8.30
2022-10-09T05:14:26.477Z,8.30
2022-10-09T05:17:12.493Z,8.30
2022-10-09T05:19:39.844Z,8.20
2022-10-09T05:22:06.600Z,8.20
2022-10-09T05:24:33.172Z,8.20
2022-10-09T05:26:59.874Z,8.10
2022-10-09T05:29:26.515Z,7.90
2022-10-09T05:31:53.238Z,7.90
2022-10-09T05:34:20.069Z,7.90
2022-10-09T05:36:46.863Z,8.00
2022-10-09T05:39:13.521Z,8.00
2022-10-09T05:41:40.166Z,8.10
2022-10-09T05:44:06.896Z,8.10
2022-10-09T05:46:33.609Z,8.20
2022-10-09T05:49:05.277Z,8.20
2022-10-09T05:51:34.635Z,8.20
2022-10-09T05:54:04.475Z,8.20
2022-10-09T05:56:36.425Z,8.30
2022-10-09T05:59:08.502Z,8.40
2022-10-09T06:01:40.525Z,8.40
2022-10-09T06:04:10.832Z,8.40
2022-10-09T06:06:39.172Z,8.40
2022-10-09T06:09:07.420Z,8.40
2022-10-09T06:11:36.220Z,8.40
2022-10-09T06:14:05.481Z,8.40
2022-10-09T06:16:34.147Z,8.40
2022-10-09T06:19:00.898Z,8.40
2022-10-09T06:21:28.321Z,8.40
2022-10-09T06:23:57.712Z,8.30
2022-10-09T06:26:25.474Z,8.30
2022-10-09T06:28:53.073Z,8.30
2022-10-09T06:31:22.000Z,8.50
2022-10-09T06:33:50.516Z,8.50
2022-10-09T06:36:22.936Z,8.50
2022-10-09T06:38:49.982Z,8.50
2022-10-09T06:41:22.417Z,8.60
2022-10-09T06:43:54.743Z,8.70
2022-10-09T06:46:23.513Z,8.90
2022-10-09T06:48:50.306Z,9.00
2022-10-09T06:51:19.413Z,9.10
2022-10-09T06:53:48.429Z,9.30
2022-10-09T06:56:16.068Z,9.40
2022-10-09T06:58:43.268Z,9.60
2022-10-09T07:01:14.410Z,9.70
2022-10-09T07:03:43.175Z,9.90
2022-10-09T07:06:14.051Z,10.00
2022-10-09T07:08:42.888Z,10.10
2022-10-09T07:11:09.628Z,10.20
2022-10-09T07:13:36.774Z,10.30
2022-10-09T07:16:04.987Z,10.30
2022-10-09T07:18:36.008Z,10.50
2022-10-09T07:21:07.747Z,10.40
2022-10-09T07:23:35.292Z,10.50
2022-10-09T07:26:07.904Z,10.60
2022-10-09T07:28:34.574Z,10.60
2022-10-09T07:31:05.671Z,10.60
2022-10-09T07:33:32.404Z,10.80
2022-10-09T07:36:00.680Z,10.90
2022-10-09T07:38:27.858Z,11.00
2022-10-09T07:40:54.994Z,11.10
2022-10-09T07:43:22.455Z,11.20
2022-10-09T07:45:49.090Z,11.20
2022-10-09T07:48:15.760Z,11.30
2022-10-09T07:50:42.454Z,11.30
2022-10-09T07:53:09.920Z,11.40
2022-10-09T07:55:36.600Z,11.60
2022-10-09T07:58:03.297Z,11.50
2022-10-09T08:00:29.897Z,11.60
2022-10-09T08:02:56.546Z,11.70
2022-10-09T08:05:23.214Z,11.80
2022-10-09T08:07:49.859Z,11.90
2022-10-09T08:10:16.596Z,12.00
2022-10-09T08:12:43.181Z,12.20
2022-10-09T08:15:10.056Z,12.20
2022-10-09T08:17:36.712Z,12.40
2022-10-09T08:20:03.554Z,12.50
2022-10-09T08:22:30.118Z,12.40
2022-10-09T08:24:56.997Z,12.50
2022-10-09T08:27:23.697Z,12.70
2022-10-09T08:29:50.404Z,12.90
2022-10-09T08:32:17.021Z,13.10
2022-10-09T08:34:43.688Z,13.10
2022-10-09T08:37:10.376Z,13.20
2022-10-09T08:39:36.998Z,13.40
2022-10-09T08:42:05.962Z,13.60
2022-10-09T08:44:47.084Z,13.70
2022-10-09T08:47:31.055Z,13.70
2022-10-09T08:50:11.028Z,14.10
2022-10-09T08:53:02.814Z,13.90
2022-10-09T08:55:35.532Z,14.00
2022-10-09T08:58:06.263Z,14.10
2022-10-09T09:00:44.818Z,14.50
2022-10-09T09:03:33.039Z,14.80
2022-10-09T09:06:22.514Z,14.80
2022-10-09T09:09:19.260Z,14.80
2022-10-09T09:12:20.105Z,15.00
2022-10-09T09:15:17.761Z,14.80
2022-10-09T09:17:57.122Z,15.20
2022-10-09T09:20:26.397Z,15.50
2022-10-09T09:22:53.223Z,15.50
2022-10-09T09:25:23.348Z,15.20
2022-10-09T09:27:55.225Z,15.40
2022-10-09T09:30:35.791Z,15.90
2022-10-09T09:33:11.645Z,16.60
2022-10-09T09:35:55.588Z,16.70
2022-10-09T09:38:22.319Z,16.10
2022-10-09T09:40:50.827Z,16.70
2022-10-09T09:43:23.039Z,17.10
2022-10-09T09:45:53.711Z,17.40
2022-10-09T09:48:39.285Z,16.80
2022-10-09T09:51:29.416Z,16.00
2022-10-09T09:54:00.228Z,15.50
2022-10-09T09:57:11.267Z,16.40
2022-10-09T09:59:40.067Z,17.20
2022-10-09T10:02:20.595Z,16.80
2022-10-09T10:05:10.321Z,17.20
2022-10-09T10:07:38.835Z,17.40
2022-10-09T10:10:22.438Z,17.30
2022-10-09T10:12:51.580Z,17.80
2022-10-09T10:15:23.283Z,16.70
2022-10-09T10:17:57.309Z,17.50
2022-10-09T10:20:24.372Z,18.10
2022-10-09T10:22:53.123Z,18.70
2022-10-09T10:25:23.310Z,18.90
2022-10-09T10:27:57.899Z,19.50
2022-10-09T10:30:24.727Z,18.90
2022-10-09T10:32:57.217Z,18.80
2022-10-09T10:35:29.491Z,17.80
2022-10-09T10:38:06.222Z,17.80
2022-10-09T10:40:50.809Z,18.30
2022-10-09T10:43:26.461Z,18.40
2022-10-09T10:46:02.636Z,18.10
2022-10-09T10:48:33.261Z,17.80
2022-10-09T10:51:09.497Z,17.80
2022-10-09T10:53:58.486Z,17.90
2022-10-09T10:56:35.406Z,17.90
2022-10-09T10:59:37.432Z,18.20
2022-10-09T11:02:10.001Z,18.00
2022-10-09T11:05:22.871Z,18.10
2022-10-09T11:08:31.462Z,19.20
2022-10-09T11:11:13.869Z,18.70
2022-10-09T11:13:49.504Z,18.60
2022-10-09T11:16:26.230Z,18.50
2022-10-09T11:19:24.768Z,18.10
2022-10-09T11:22:03.590Z,17.60
2022-10-09T11:24:49.528Z,17.50
2022-10-09T11:27:31.095Z,18.10
2022-10-09T11:30:02.244Z,17.90
2022-10-09T11:32:35.431Z,18.70
2022-10-09T11:35:09.910Z,18.30
2022-10-09T11:37:39.393Z,18.10
2022-10-09T11:40:12.082Z,17.80
2022-10-09T11:42:38.957Z,18.10
2022-10-09T11:45:18.923Z,18.00
2022-10-09T11:48:10.077Z,18.20
2022-10-09T11:51:03.511Z,18.40
2022-10-09T11:53:34.463Z,18.10
2022-10-09T11:56:09.074Z,17.70
2022-10-09T11:58:35.854Z,17.90
2022-10-09T12:01:23.011Z,17.70
2022-10-09T12:04:01.841Z,18.00
2022-10-09T12:06:29.720Z,18.20
2022-10-09T12:09:01.758Z,18.30
2022-10-09T12:11:29.462Z,18.10
2022-10-09T12:14:02.495Z,18.20
2022-10-09T12:16:39.747Z,17.60
2022-10-09T12:19:19.392Z,18.60
2022-10-09T12:21:58.978Z,18.40
2022-10-09T12:24:38.780Z,17.70
2022-10-09T12:27:06.402Z,17.80
2022-10-09T12:29:44.551Z,18.60
2022-10-09T12:32:25.831Z,18.30
2022-10-09T12:34:53.863Z,17.90
2022-10-09T12:37:30.426Z,17.20
2022-10-09T12:40:13.699Z,16.60
2022-10-09T12:42:41.443Z,16.80
2022-10-09T12:45:16.997Z,16.70
2022-10-09T12:47:44.012Z,16.50
2022-10-09T12:50:16.730Z,16.40
2022-10-09T12:53:07.114Z,16.20
2022-10-09T12:55:40.487Z,15.90
2022-10-09T12:58:15.850Z,15.90
2022-10-09T13:00:42.910Z,15.80
2022-10-09T13:03:53.666Z,15.70
2022-10-09T13:06:31.688Z,15.80
2022-10-09T13:09:01.816Z,15.70
2022-10-09T13:11:41.045Z,15.70
2022-10-09T13:14:43.197Z,15.70
2022-10-09T13:20:22.872Z,15.70
2022-10-09T13:23:00.699Z,15.60
2022-10-09T13:25:32.026Z,15.50
2022-10-09T13:27:58.783Z,15.50
2022-10-09T13:30:25.677Z,15.60
2022-10-09T13:32:52.406Z,15.60
2022-10-09T13:35:19.178Z,15.50
2022-10-09T13:37:45.788Z,15.50
2022-10-09T13:40:19.619Z,15.50
2022-10-09T13:42:53.018Z,15.60
2022-10-09T13:45:19.767Z,15.60
2022-10-09T13:47:46.697Z,15.70
2022-10-09T13:50:14.424Z,15.70
2022-10-09T13:52:41.408Z,15.70
2022-10-09T13:55:08.767Z,15.60
2022-10-09T13:57:35.359Z,15.70
2022-10-09T14:00:02.107Z,15.70
2022-10-09T14:02:28.780Z,15.60
2022-10-09T14:04:55.407Z,15.50
2022-10-09T14:07:22.069Z,15.60
2022-10-09T14:09:48.754Z,15.60
2022-10-09T14:12:15.401Z,15.50
2022-10-09T14:14:42.038Z,15.50
2022-10-09T14:17:08.833Z,15.50
2022-10-09T14:19:35.583Z,15.50
2022-10-09T14:22:02.295Z,15.50
2022-10-09T14:24:29.139Z,15.50
2022-10-09T14:26:56.208Z,15.50
2022-10-09T14:29:22.820Z,15.50
2022-10-09T14:31:51.406Z,15.50
2022-10-09T14:34:18.146Z,15.50
2022-10-09T14:36:44.893Z,15.40
2022-10-09T14:39:11.680Z,15.50
2022-10-09T14:41:38.523Z,15.70
2022-10-09T14:44:06.196Z,15.60
2022-10-09T14:46:33.996Z,15.50
2022-10-09T14:49:07.184Z,15.50
2022-10-09T14:51:36.975Z,15.40
2022-10-09T14:54:04.673Z,15.40
2022-10-09T14:56:31.818Z,15.40
2022-10-09T14:59:00.443Z,15.50
2022-10-09T15:01:27.988Z,15.50
2022-10-09T15:03:54.971Z,15.50
2022-10-09T15:06:24.186Z,15.50
2022-10-09T15:08:53.909Z,15.60
2022-10-09T15:11:20.474Z,15.50
2022-10-09T15:13:47.120Z,15.50
2022-10-09T15:16:15.899Z,15.40
2022-10-09T15:18:43.908Z,15.40
2022-10-09T15:21:17.052Z,15.40
2022-10-09T15:23:44.406Z,15.40
2022-10-09T15:26:11.563Z,15.40
2022-10-09T15:28:40.510Z,15.30
2022-10-09T15:31:16.139Z,15.40
2022-10-09T15:33:42.823Z,15.30
2022-10-09T15:36:09.595Z,15.30
2022-10-09T15:38:36.317Z,15.20
2022-10-09T15:41:03.065Z,15.10
2022-10-09T15:43:29.744Z,15.10
2022-10-09T15:46:03.396Z,15.00
2022-10-09T15:48:30.847Z,14.90
2022-10-09T15:50:57.501Z,14.90
2022-10-09T15:53:24.969Z,14.80
2022-10-09T15:55:53.133Z,14.80
2022-10-09T15:58:19.967Z,14.70
2022-10-09T16:00:49.039Z,14.60
2022-10-09T16:03:17.146Z,14.60
2022-10-09T16:05:48.631Z,14.40
2022-10-09T16:08:16.408Z,14.40
2022-10-09T16:10:49.020Z,14.30
2022-10-09T16:13:16.286Z,14.30
2022-10-09T16:15:44.961Z,14.20
2022-10-09T16:18:12.022Z,14.10
2022-10-09T16:20:39.774Z,14.00
2022-10-09T16:23:07.906Z,13.90
2022-10-09T16:25:35.736Z,13.70
2022-10-09T16:28:03.539Z,13.60
2022-10-09T16:30:30.527Z,13.50
2022-10-09T16:32:57.168Z,13.40
2022-10-09T16:35:24.011Z,13.30
2022-10-09T16:37:53.446Z,13.20
2022-10-09T16:40:25.413Z,13.10
2022-10-09T16:43:02.855Z,13.00
2022-10-09T16:45:29.510Z,12.90
2022-10-09T16:47:59.730Z,12.80
2022-10-09T16:50:26.782Z,12.80
2022-10-09T16:52:53.550Z,12.70
2022-10-09T16:55:20.277Z,12.60
2022-10-09T16:57:46.976Z,12.60
2022-10-09T17:00:18.181Z,12.60
2022-10-09T17:02:45.752Z,12.40
2022-10-09T17:05:12.459Z,12.30
2022-10-09T17:07:39.051Z,12.20
2022-10-09T17:10:06.352Z,12.00
2022-10-09T17:12:33.099Z,12.00
2022-10-09T17:14:59.707Z,12.00
2022-10-09T17:17:26.376Z,12.00
2022-10-09T17:19:53.520Z,12.00
2022-10-09T17:22:20.375Z,11.90
2022-10-09T17:24:47.140Z,11.80
2022-10-09T17:27:13.808Z,11.80
2022-10-09T17:29:40.390Z,11.70
2022-10-09T17:32:09.300Z,11.70
2022-10-09T17:34:35.983Z,11.70
2022-10-09T17:37:02.690Z,11.70
2022-10-09T17:39:29.527Z,11.60
2022-10-09T17:41:56.228Z,11.60
2022-10-09T17:44:23.427Z,11.60
2022-10-09T17:46:50.112Z,11.60
2022-10-09T17:49:16.744Z,11.60
2022-10-09T17:51:43.794Z,11.70
2022-10-09T17:54:13.905Z,11.70
2022-10-09T17:56:41.230Z,11.70
2022-10-09T17:59:08.548Z,11.80
2022-10-09T18:01:36.141Z,11.80
2022-10-09T18:04:03.852Z,11.80
2022-10-09T18:06:32.920Z,11.70
2022-10-09T18:09:00.331Z,11.80
2022-10-09T18:11:27.665Z,11.80
2022-10-09T18:13:54.739Z,11.80
2022-10-09T18:16:32.698Z,11.80
2022-10-09T18:19:18.410Z,11.90
2022-10-09T18:21:47.102Z,11.90
2022-10-09T18:24:14.919Z,11.80
2022-10-09T18:26:42.418Z,11.90
2022-10-09T18:29:09.189Z,11.90
2022-10-09T18:31:37.757Z,11.80
2022-10-09T18:34:04.479Z,11.90
2022-10-09T18:36:31.782Z,11.90
2022-10-09T18:39:01.639Z,11.90
2022-10-09T18:41:28.403Z,11.90
2022-10-09T18:43:55.351Z,11.90
2022-10-09T18:46:25.370Z,11.90
2022-10-09T18:48:53.617Z,11.90
2022-10-09T18:51:23.195Z,11.90
2022-10-09T18:53:54.202Z,11.90
2022-10-09T18:56:22.388Z,11.90
2022-10-09T18:58:50.430Z,11.80
2022-10-09T19:01:17.408Z,11.80
2022-10-09T19:03:47.469Z,11.80
2022-10-09T19:06:17.504Z,11.70
2022-10-09T19:08:45.085Z,11.70
2022-10-09T19:11:14.266Z,11.60
2022-10-09T19:13:42.653Z,11.70
2022-10-09T19:16:09.897Z,11.60
2022-10-09T19:18:37.104Z,11.60
2022-10-09T19:21:04.077Z,11.60
2022-10-09T19:23:30.886Z,11.60
2022-10-09T19:25:59.287Z,11.60
2022-10-09T19:28:30.511Z,11.60
2022-10-09T19:30:57.346Z,11.60
2022-10-09T19:33:24.069Z,11.60
2022-10-09T19:35:52.843Z,11.60
2022-10-09T19:38:20.173Z,11.50
2022-10-09T19:40:47.924Z,11.50
2022-10-09T19:43:15.500Z,11.40
2022-10-09T19:45:43.272Z,11.40
2022-10-09T19:48:10.283Z,11.40
2022-10-09T19:50:44.488Z,11.40
2022-10-09T19:53:12.708Z,11.30
2022-10-09T19:55:39.435Z,11.40
2022-10-09T19:58:06.771Z,11.30
2022-10-09T20:00:33.509Z,11.30
2022-10-09T20:03:00.205Z,11.20
2022-10-09T20:05:26.891Z,11.20
2022-10-09T20:07:53.729Z,11.30
2022-10-09T20:10:20.347Z,11.20
2022-10-09T20:12:47.528Z,11.20
2022-10-09T20:15:14.391Z,11.20
2022-10-09T20:17:41.027Z,11.20
2022-10-09T20:20:08.125Z,11.10
2022-10-09T20:22:34.795Z,11.10
2022-10-09T20:25:01.435Z,11.00
2022-10-09T20:27:29.196Z,10.90
2022-10-09T20:29:55.882Z,10.90
2022-10-09T20:32:24.855Z,10.90
2022-10-09T20:34:51.810Z,10.80
2022-10-09T20:37:18.566Z,10.70
2022-10-09T20:39:45.282Z,10.60
2022-10-09T20:42:11.978Z,10.60
2022-10-09T20:44:38.727Z,10.60
2022-10-09T20:47:05.389Z,10.60
2022-10-09T20:49:32.080Z,10.60
2022-10-09T20:51:58.796Z,10.70
2022-10-09T20:54:25.564Z,10.60
2022-10-09T20:56:52.193Z,10.60
2022-10-09T20:59:19.141Z,10.50
2022-10-09T21:01:46.059Z,10.60
2022-10-09T21:04:12.920Z,10.60
2022-10-09T21:06:39.630Z,10.60
2022-10-09T21:09:06.518Z,10.60
2022-10-09T21:11:34.715Z,10.40
2022-10-09T21:14:02.494Z,10.40
2022-10-09T21:16:29.462Z,10.40
2022-10-09T21:19:02.400Z,10.30
2022-10-09T21:21:36.288Z,10.30
2022-10-09T21:24:03.361Z,10.30
2022-10-09T21:26:31.958Z,10.20
2022-10-09T21:29:00.151Z,10.10
2022-10-09T21:31:29.324Z,10.10
2022-10-09T21:33:57.313Z,10.10
2022-10-09T21:36:56.188Z,10.00
2022-10-09T21:39:28.322Z,9.90
2022-10-09T21:41:54.994Z,9.90
2022-10-09T21:44:21.758Z,9.80
2022-10-09T21:46:48.415Z,9.70
2022-10-09T21:49:27.061Z,9.70
2022-10-09T21:51:54.197Z,9.70
2022-10-09T21:54:21.022Z,9.70
2022-10-09T21:56:47.777Z,9.60
2022-10-09T21:59:14.394Z,9.60
2022-10-09T22:01:41.062Z,9.50
2022-10-09T22:04:07.924Z,9.50
2022-10-09T22:06:34.529Z,9.40
2022-10-09T22:09:01.325Z,9.40
2022-10-09T22:11:28.150Z,9.40
2022-10-09T22:13:55.982Z,9.40
2022-10-09T22:16:22.683Z,9.40
2022-10-09T22:18:49.334Z,9.40
2022-10-09T22:21:17.219Z,9.40
2022-10-09T22:23:44.381Z,9.40
2022-10-09T22:26:14.487Z,9.30
2022-10-09T22:28:41.293Z,9.30
2022-10-09T22:31:19.496Z,9.30
2022-10-09T22:33:57.991Z,9.20
2022-10-09T22:36:26.756Z,9.20
2022-10-09T22:38:55.435Z,9.20
2022-10-09T22:41:23.110Z,9.10
2022-10-09T22:43:52.312Z,9.20
2022-10-09T22:46:24.503Z,9.10
2022-10-09T22:48:51.784Z,9.10
2022-10-09T22:51:20.003Z,9.10
2022-10-09T22:53:47.550Z,9.10
2022-10-09T22:56:19.905Z,9.00
2022-10-09T22:58:47.251Z,9.00
2022-10-09T23:01:19.281Z,9.00
2022-10-09T23:03:45.900Z,9.00
2022-10-09T23:06:15.508Z,8.90
2022-10-09T23:08:43.871Z,8.90
2022-10-09T23:11:11.397Z,8.90
2022-10-09T23:13:38.988Z,8.90
2022-10-09T23:16:08.759Z,8.90
2022-10-09T23:18:35.335Z,8.80
2022-10-09T23:21:06.784Z,8.80
2022-10-09T23:23:34.098Z,8.80
2022-10-09T23:26:21.378Z,8.80
2022-10-09T23:28:57.034Z,8.80
2022-10-09T23:31:23.923Z,8.80
2022-10-09T23:33:50.816Z,8.80
2022-10-09T23:36:20.201Z,8.80
2022-10-09T23:38:47.296Z,8.70
2022-10-09T23:41:17.392Z,8.70
2022-10-09T23:43:44.459Z,8.70
2022-10-09T23:46:18.029Z,8.60
2022-10-09T23:48:45.991Z,8.60
2022-10-09T23:51:13.981Z,8.60
2022-10-09T23:53:41.520Z,8.60
2022-10-09T23:56:22.090Z,8.60
2022-10-09T23:58:49.017Z,8.50
